Amami, Japan

3:26 PM JST on September 02, 2015 (GMT +0900)
Amami | | Change Station
CLOSE
Current Station
Airport
Location: Amami,
Elevation: 23 ft
Nearby Weather Stations

Elev 23 ft 28.43 °N, 129.71 °E | Updated 26 minutes ago

Scattered Clouds
Scattered Clouds
86 °F
Feels Like 97 °F
N
9
Wind Variable Wind from SSW

Today
High -- | Low -- °F
--% Chance of Precip.
Yesterday
High -- | Low -- °F
Precip. -- in
5:59 AM 6:42 PM
Waning Gibbous, 83% visible
Pressure 29.89 in
Visibility 6.2 miles
Clouds Few 1500 ft
Scattered Clouds 17000 ft
Heat Index 97 °F
Dew Point 77 °F
Humidity 74%
Rainfall 0.00 in
Snow Depth Not available.
UV 7 out of 12
Pollen Not available.
Air Quality Not available.
Flu Activity Not available.
METAR RJKA 020600Z 20008KT 9999 FEW015 SCT170 BKN/// 30/25 Q1012
Pressure 29.89 in
Visibility 6.2 miles
Clouds Few 1500 ft
Scattered Clouds 17000 ft
Heat Index 97 °F
Dew Point 77 °F
Humidity 74%
Rainfall 0.00 in
Snow Depth Not available.
UV 7 out of 12
Pollen Not available.
Air Quality Not available.
Flu Activity Not available.
METAR RJKA 020600Z 20008KT 9999 FEW015 SCT170 BKN/// 30/25 Q1012

10-Day Weather Forecast

×

Almanac

Astronomy

Sep. 02, 2015 Rise Set
Actual Time
Civil Twilight
Nautical Twilight
Astronomical Twilight
Moon
Length of Visible Light
Length of Day
Tomorrow will be .
, % of the Moon is Illuminated

Today's Extremes

Country Highs Country Lows

Community

WunderPhotos

Upload Photos

1,851,709 photos uploaded!

WunderBlogs® & News

Nearby

Air Quality

  Air Quality AQ Index Pollutant
Not available.

Snow Depth

Station Depth Elevation

Earthquake Activity

City Distance Mag. Time & Date
Minimum magnitude displayed is 2.5.

Coastal Water Temperatures

Place Temperature

Stations

Nearby Weather Stations

Station Location Temp. Windchill Dew Point Humidity Wind Precip. Elev Updated Type